Terminal Aerodrome Forecast
Issued by NWS Blacksburg, VA

Current Version | Previous Version | Text Only | Print | Product List | Glossary Off
Versions: 1 2 3 4 5 6 7 8 9 10 11 12 13 14 15 16 17 18 19 20 21 22 23 24 25 26

000
FTUS41 KRNK 161142
TAFBLF
TAF
KBLF 161142Z 1612/1712 24005KT P6SM BKN050
     FM161700 26005KT P6SM OVC020
      TEMPO 1617/1618 4SM -SN OVC007
     FM162300 29006KT 3SM -SN OVC025
     FM170700 32006KT P6SM OVC020=

USA.gov is the U.S. government's official web portal to all federal, state and local government web resources and services.